createdAt,value
2018-03-29T00:01:54.519Z,15.07
2018-03-29T00:04:22.195Z,13.80
2018-03-29T00:06:49.931Z,13.73
2018-03-29T00:09:17.656Z,13.00
2018-03-29T00:11:45.571Z,13.70
2018-03-29T00:14:13.246Z,12.30
2018-03-29T00:16:41.020Z,16.10
2018-03-29T00:19:08.770Z,14.17
2018-03-29T00:21:36.272Z,14.30
2018-03-29T00:24:04.120Z,13.37
2018-03-29T00:26:31.627Z,13.03
2018-03-29T00:28:59.212Z,13.97
2018-03-29T00:31:26.784Z,14.03
2018-03-29T00:33:54.433Z,13.87
2018-03-29T00:36:22.195Z,14.10
2018-03-29T00:38:49.716Z,14.20
2018-03-29T00:41:17.415Z,12.70
2018-03-29T00:43:44.948Z,14.37
2018-03-29T00:46:12.863Z,12.83
2018-03-29T00:48:40.375Z,12.47
2018-03-29T00:51:07.987Z,13.90
2018-03-29T00:53:44.256Z,13.70
2018-03-29T00:56:11.753Z,13.17
2018-03-29T00:58:39.425Z,13.50
2018-03-29T01:01:07.200Z,13.97
2018-03-29T01:03:36.236Z,14.00
2018-03-29T01:06:03.795Z,14.00
2018-03-29T01:08:33.609Z,14.07
2018-03-29T01:11:01.187Z,13.00
2018-03-29T01:13:28.799Z,14.23
2018-03-29T01:15:56.307Z,14.60
2018-03-29T01:18:23.811Z,14.07
2018-03-29T01:20:51.715Z,14.70
2018-03-29T01:23:19.229Z,14.10
2018-03-29T01:25:47.370Z,12.90
2018-03-29T01:28:14.987Z,15.00
2018-03-29T01:30:43.413Z,14.90
2018-03-29T01:33:10.927Z,15.60
2018-03-29T01:35:38.439Z,15.50
2018-03-29T01:38:06.116Z,15.50
2018-03-29T01:40:33.636Z,14.73
2018-03-29T01:43:01.317Z,15.47
2018-03-29T01:45:28.820Z,14.37
2018-03-29T01:47:56.319Z,13.50
2018-03-29T01:50:23.824Z,15.57
2018-03-29T01:52:51.325Z,14.87
2018-03-29T01:55:18.912Z,13.77
2018-03-29T01:57:46.576Z,14.77
2018-03-29T02:00:14.084Z,15.47
2018-03-29T02:02:41.579Z,14.60
2018-03-29T02:05:09.671Z,15.30
2018-03-29T02:07:37.430Z,14.97
2018-03-29T02:10:04.940Z,14.73
2018-03-29T02:12:32.447Z,14.67
2018-03-29T02:15:00.107Z,14.10
2018-03-29T02:17:27.855Z,14.73
2018-03-29T02:19:56.280Z,14.27
2018-03-29T02:22:23.808Z,14.43
2018-03-29T02:24:51.450Z,13.80
2018-03-29T02:27:19.239Z,14.53
2018-03-29T02:29:46.803Z,14.90
2018-03-29T02:32:14.707Z,13.37
2018-03-29T02:34:42.221Z,13.37
2018-03-29T02:37:10.125Z,14.60
2018-03-29T02:39:38.409Z,14.77
2018-03-29T02:42:06.191Z,13.73
2018-03-29T02:44:33.676Z,13.67
2018-03-29T02:47:01.192Z,14.03
2018-03-29T02:49:29.659Z,13.90
2018-03-29T02:51:57.192Z,14.50
2018-03-29T02:54:24.692Z,13.27
2018-03-29T02:56:52.200Z,13.50
2018-03-29T02:59:19.724Z,13.90
2018-03-29T03:01:47.224Z,13.60
2018-03-29T03:04:14.744Z,14.27
2018-03-29T03:06:42.534Z,11.97
2018-03-29T03:09:10.054Z,13.23
2018-03-29T03:11:37.564Z,14.20
2018-03-29T03:14:05.059Z,14.90
2018-03-29T03:16:32.587Z,12.80
2018-03-29T03:19:00.852Z,14.27
2018-03-29T03:21:29.487Z,14.20
2018-03-29T03:23:56.989Z,13.60
2018-03-29T03:26:24.639Z,13.80
2018-03-29T03:28:52.548Z,14.90
2018-03-29T03:31:20.844Z,14.93
2018-03-29T03:33:48.763Z,13.63
2018-03-29T03:36:16.293Z,14.07
2018-03-29T03:38:44.356Z,13.13
2018-03-29T03:41:11.865Z,13.07
2018-03-29T03:43:39.755Z,13.40
2018-03-29T03:46:07.652Z,13.90
2018-03-29T03:48:35.651Z,14.57
2018-03-29T03:51:03.211Z,14.03
2018-03-29T03:53:30.719Z,13.90
2018-03-29T03:55:58.228Z,14.67
2018-03-29T03:58:26.803Z,14.47
2018-03-29T04:00:55.260Z,15.63
2018-03-29T04:03:22.940Z,15.87
2018-03-29T04:05:50.708Z,14.30
2018-03-29T04:08:18.791Z,15.40
2018-03-29T04:10:46.863Z,15.17
2018-03-29T04:13:14.623Z,12.93
2018-03-29T04:15:43.908Z,13.90
2018-03-29T04:18:11.427Z,14.60
2018-03-29T04:20:38.930Z,14.60
2018-03-29T04:23:06.444Z,15.33
2018-03-29T04:25:34.221Z,15.30
2018-03-29T04:28:02.647Z,14.30
2018-03-29T04:30:30.212Z,15.80
2018-03-29T04:32:57.710Z,13.90
2018-03-29T04:35:25.403Z,15.00
2018-03-29T04:37:53.159Z,15.07
2018-03-29T04:40:21.211Z,13.70
2018-03-29T04:42:49.615Z,12.87
2018-03-29T04:45:17.168Z,14.40
2018-03-29T04:47:44.846Z,14.97
2018-03-29T04:50:12.355Z,13.03
2018-03-29T04:52:40.697Z,13.20
2018-03-29T04:55:08.415Z,15.40
2018-03-29T04:57:35.915Z,10.27
2018-03-29T05:00:04.244Z,12.80
2018-03-29T05:02:31.752Z,14.90
2018-03-29T05:04:59.264Z,13.00
2018-03-29T05:07:27.920Z,13.30
2018-03-29T05:09:55.420Z,15.37
2018-03-29T05:12:23.038Z,14.30
2018-03-29T05:14:50.535Z,13.50
2018-03-29T05:17:18.807Z,17.50
2018-03-29T05:19:46.352Z,14.73
2018-03-29T05:22:14.459Z,15.93
2018-03-29T05:24:42.456Z,12.10
2018-03-29T05:27:15.581Z,27.53
2018-03-29T05:29:43.496Z,24.83
2018-03-29T05:32:11.018Z,17.10
2018-03-29T05:34:38.534Z,17.30
2018-03-29T05:37:06.248Z,17.47
2018-03-29T05:39:34.178Z,17.80
2018-03-29T05:42:01.699Z,15.23
2018-03-29T05:44:29.196Z,14.10
2018-03-29T05:46:56.797Z,15.83
2018-03-29T05:49:24.291Z,16.37
2018-03-29T05:51:51.888Z,16.53
2018-03-29T05:54:19.392Z,16.43
2018-03-29T05:56:46.943Z,15.33
2018-03-29T05:59:14.894Z,14.93
2018-03-29T06:01:42.552Z,16.53
2018-03-29T06:04:10.052Z,19.70
2018-03-29T06:06:37.953Z,17.87
2018-03-29T06:09:06.172Z,20.97
2018-03-29T06:11:34.067Z,20.70
2018-03-29T06:14:07.023Z,18.87
2018-03-29T06:16:40.140Z,22.47
2018-03-29T06:19:08.676Z,19.00
2018-03-29T06:21:36.209Z,21.20
2018-03-29T06:24:04.514Z,22.63
2018-03-29T06:26:32.131Z,25.07
2018-03-29T06:28:59.643Z,25.30
2018-03-29T06:31:27.147Z,23.17
2018-03-29T06:33:55.030Z,22.90
2018-03-29T06:36:23.680Z,24.10
2018-03-29T06:38:52.011Z,21.40
2018-03-29T06:41:19.709Z,21.10
2018-03-29T06:43:47.267Z,22.13
2018-03-29T06:46:16.384Z,22.57
2018-03-29T06:48:44.664Z,20.90
2018-03-29T06:51:12.175Z,20.00
2018-03-29T06:53:39.740Z,19.07
2018-03-29T06:56:07.422Z,20.80
2018-03-29T06:58:35.691Z,19.13
2018-03-29T07:01:03.462Z,17.60
2018-03-29T07:03:31.188Z,18.30
2018-03-29T07:05:58.958Z,15.10
2018-03-29T07:08:26.502Z,19.27
2018-03-29T07:10:54.024Z,20.03
2018-03-29T07:13:21.552Z,18.40
2018-03-29T07:15:49.823Z,19.57
2018-03-29T07:18:17.336Z,18.00
2018-03-29T07:20:44.850Z,19.17
2018-03-29T07:23:13.316Z,19.67
2018-03-29T07:25:40.814Z,17.10
2018-03-29T07:28:08.533Z,17.13
2018-03-29T07:30:36.082Z,18.10
2018-03-29T07:33:03.739Z,17.57
2018-03-29T07:35:31.251Z,17.30
2018-03-29T07:37:59.907Z,14.27
2018-03-29T07:40:27.612Z,17.87
2018-03-29T07:42:55.683Z,18.63
2018-03-29T07:45:23.473Z,15.40
2018-03-29T07:47:51.041Z,18.87
2018-03-29T07:50:18.707Z,19.30
2018-03-29T07:52:47.199Z,19.50
2018-03-29T07:55:14.844Z,16.60
2018-03-29T07:57:42.563Z,11.10
2018-03-29T08:00:10.585Z,19.93
2018-03-29T08:02:38.094Z,19.43
2018-03-29T08:05:05.715Z,19.03
2018-03-29T08:07:33.467Z,20.60
2018-03-29T08:10:01.127Z,20.70
2018-03-29T08:12:28.628Z,19.77
2018-03-29T08:14:56.143Z,20.07
2018-03-29T08:17:23.789Z,19.77
2018-03-29T08:19:51.568Z,17.67
2018-03-29T08:22:19.348Z,20.73
2018-03-29T08:24:46.860Z,17.07
2018-03-29T08:27:14.359Z,19.90
2018-03-29T08:29:42.007Z,21.40
2018-03-29T08:32:09.751Z,18.97
2018-03-29T08:34:37.680Z,19.23
2018-03-29T08:37:05.930Z,18.40
2018-03-29T08:39:33.664Z,19.30
2018-03-29T08:42:01.178Z,19.40
2018-03-29T08:44:28.873Z,19.53
2018-03-29T08:46:56.371Z,15.80
2018-03-29T08:49:23.879Z,19.17
2018-03-29T08:51:51.379Z,19.67
2018-03-29T08:54:24.775Z,16.90
2018-03-29T08:56:52.303Z,18.93
2018-03-29T08:59:19.822Z,18.80
2018-03-29T09:01:47.319Z,18.87
2018-03-29T09:04:14.983Z,19.63
2018-03-29T09:06:42.490Z,19.70
2018-03-29T09:09:10.781Z,21.00
2018-03-29T09:11:38.286Z,13.57
2018-03-29T09:14:06.058Z,20.67
2018-03-29T09:16:34.427Z,21.47
2018-03-29T09:19:01.938Z,18.37
2018-03-29T09:21:29.593Z,17.57
2018-03-29T09:23:57.907Z,19.90
2018-03-29T09:26:25.494Z,18.70
2018-03-29T09:28:53.243Z,19.97
2018-03-29T09:31:20.765Z,19.40
2018-03-29T09:33:49.058Z,18.37
2018-03-29T09:36:16.639Z,21.97
2018-03-29T09:38:44.531Z,19.77
2018-03-29T09:41:12.060Z,19.13
2018-03-29T09:43:39.799Z,19.57
2018-03-29T09:46:07.429Z,18.03
2018-03-29T09:51:08.956Z,16.73
2018-03-29T09:53:36.491Z,18.67
2018-03-29T09:56:04.115Z,18.03
2018-03-29T09:58:31.641Z,19.77
2018-03-29T10:01:04.928Z,20.67
2018-03-29T10:03:32.430Z,22.00
2018-03-29T10:06:03.963Z,20.83
2018-03-29T10:08:32.264Z,20.23
2018-03-29T10:10:59.766Z,13.40
2018-03-29T10:13:27.290Z,18.37
2018-03-29T10:15:54.883Z,20.10
2018-03-29T10:18:22.419Z,18.43
2018-03-29T10:20:49.916Z,20.90
2018-03-29T10:23:17.528Z,18.40
2018-03-29T10:25:45.039Z,18.20
2018-03-29T10:28:12.549Z,18.67
2018-03-29T10:30:40.216Z,18.10
2018-03-29T10:33:07.788Z,18.40
2018-03-29T10:35:35.413Z,19.17
2018-03-29T10:38:03.213Z,18.43
2018-03-29T10:40:31.019Z,16.13
2018-03-29T10:42:58.523Z,18.70
2018-03-29T10:45:26.197Z,16.37
2018-03-29T10:47:53.726Z,15.30
2018-03-29T10:50:21.623Z,12.33
2018-03-29T10:52:49.134Z,18.27
2018-03-29T10:55:16.952Z,17.70
2018-03-29T10:57:44.477Z,17.77
2018-03-29T11:00:11.967Z,11.90
2018-03-29T11:02:39.592Z,13.90
2018-03-29T11:05:07.487Z,18.80
2018-03-29T11:07:35.156Z,18.10
2018-03-29T11:10:02.908Z,15.57
2018-03-29T11:12:30.410Z,18.30
2018-03-29T11:14:58.052Z,16.43
2018-03-29T11:17:25.580Z,15.83
2018-03-29T11:19:53.357Z,15.40
2018-03-29T11:22:21.267Z,14.50
2018-03-29T11:24:48.780Z,15.30
2018-03-29T11:27:16.298Z,15.30
2018-03-29T11:29:43.795Z,14.93
2018-03-29T11:32:11.460Z,17.53
2018-03-29T11:34:38.964Z,17.67
2018-03-29T11:37:06.551Z,16.87
2018-03-29T11:39:34.405Z,16.47
2018-03-29T11:42:02.477Z,18.27
2018-03-29T11:44:30.037Z,18.23
2018-03-29T11:46:57.855Z,18.40
2018-03-29T11:49:25.426Z,15.57
2018-03-29T11:51:53.984Z,15.90
2018-03-29T11:54:21.501Z,18.20
2018-03-29T11:56:48.998Z,14.30
2018-03-29T11:59:16.519Z,17.53
2018-03-29T12:01:44.119Z,18.00
2018-03-29T12:04:13.134Z,15.47
2018-03-29T12:06:40.647Z,15.80
2018-03-29T12:09:08.150Z,16.13
2018-03-29T12:11:36.449Z,17.87
2018-03-29T12:14:03.940Z,14.27
2018-03-29T12:16:31.447Z,16.73
2018-03-29T12:18:59.715Z,17.40
2018-03-29T12:21:27.435Z,16.57
2018-03-29T12:23:55.204Z,15.00
2018-03-29T12:26:22.699Z,15.87
2018-03-29T12:28:50.420Z,17.40
2018-03-29T12:31:17.979Z,17.07
2018-03-29T12:33:45.551Z,17.10
2018-03-29T12:36:13.081Z,17.90
2018-03-29T12:38:40.589Z,14.80
2018-03-29T12:41:08.104Z,16.70
2018-03-29T12:43:36.027Z,14.60
2018-03-29T12:46:04.432Z,13.57
2018-03-29T12:48:31.929Z,16.17
2018-03-29T12:51:00.950Z,16.23
2018-03-29T12:53:28.709Z,11.70
2018-03-29T12:55:56.206Z,14.63
2018-03-29T12:58:24.607Z,13.37
2018-03-29T13:00:52.148Z,14.83
2018-03-29T13:03:19.647Z,14.80
2018-03-29T13:05:47.168Z,14.50
2018-03-29T13:08:14.763Z,12.13
2018-03-29T13:10:42.383Z,16.07
2018-03-29T13:13:10.177Z,15.43
2018-03-29T13:15:37.700Z,15.73
2018-03-29T13:18:05.412Z,15.00
2018-03-29T13:20:33.148Z,14.27
2018-03-29T13:23:00.907Z,15.00
2018-03-29T13:25:28.623Z,14.97
2018-03-29T13:27:56.526Z,16.07
2018-03-29T13:30:24.430Z,14.23
2018-03-29T13:32:52.543Z,14.23
2018-03-29T13:35:20.548Z,17.30
2018-03-29T13:37:48.114Z,15.40
2018-03-29T13:40:15.611Z,16.20
2018-03-29T13:42:43.304Z,15.77
2018-03-29T13:45:10.814Z,15.20
2018-03-29T13:47:38.324Z,14.00
2018-03-29T13:50:05.855Z,15.00
2018-03-29T13:52:33.464Z,14.77
2018-03-29T13:55:01.015Z,18.13
2018-03-29T13:57:29.295Z,16.40
2018-03-29T13:59:56.795Z,14.80
2018-03-29T14:02:24.492Z,15.43
2018-03-29T14:04:52.001Z,13.77
2018-03-29T14:07:19.755Z,15.80
2018-03-29T14:09:47.290Z,16.13
2018-03-29T14:12:14.831Z,15.60
2018-03-29T14:14:42.368Z,14.17
2018-03-29T14:17:10.051Z,14.20
2018-03-29T14:19:37.611Z,14.30
2018-03-29T14:22:05.221Z,12.90
2018-03-29T14:24:33.513Z,14.50
2018-03-29T14:27:01.227Z,17.13
2018-03-29T14:29:28.996Z,13.07
2018-03-29T14:31:56.511Z,15.30
2018-03-29T14:34:24.020Z,17.43
2018-03-29T14:36:51.684Z,14.93
2018-03-29T14:39:19.262Z,13.40
2018-03-29T14:41:46.762Z,14.73
2018-03-29T14:44:14.473Z,15.90
2018-03-29T14:46:42.452Z,15.57
2018-03-29T14:49:10.799Z,16.20
2018-03-29T14:51:38.310Z,14.10
2018-03-29T14:54:06.012Z,15.87
2018-03-29T14:56:33.811Z,16.57
2018-03-29T14:59:01.324Z,15.63
2018-03-29T15:01:28.827Z,18.20
2018-03-29T15:03:57.093Z,18.60
2018-03-29T15:06:24.626Z,18.20
2018-03-29T15:08:52.284Z,17.67
2018-03-29T15:11:19.804Z,18.33
2018-03-29T15:13:47.375Z,17.50
2018-03-29T15:16:14.833Z,16.60
2018-03-29T15:18:42.327Z,17.50
2018-03-29T15:21:09.826Z,18.10
2018-03-29T15:23:37.333Z,17.30
2018-03-29T15:26:04.847Z,13.83
2018-03-29T15:28:32.350Z,14.23
2018-03-29T15:31:00.013Z,15.00
2018-03-29T15:33:27.766Z,16.00
2018-03-29T15:35:55.282Z,15.10
2018-03-29T15:38:22.995Z,14.07
2018-03-29T15:40:50.511Z,15.37
2018-03-29T15:43:18.036Z,14.73
2018-03-29T15:45:45.671Z,14.77
2018-03-29T15:48:13.187Z,15.20
2018-03-29T15:50:40.916Z,15.53
2018-03-29T15:53:09.630Z,15.77
2018-03-29T15:55:37.328Z,16.10
2018-03-29T15:58:04.941Z,16.90
2018-03-29T16:00:32.718Z,18.00
2018-03-29T16:03:00.920Z,17.33
2018-03-29T16:05:28.746Z,18.20
2018-03-29T16:07:56.223Z,18.07
2018-03-29T16:10:23.738Z,19.53
2018-03-29T16:12:51.339Z,19.50
2018-03-29T16:15:19.411Z,18.10
2018-03-29T16:17:46.928Z,19.23
2018-03-29T16:20:14.426Z,18.93
2018-03-29T16:22:42.145Z,18.80
2018-03-29T16:25:10.333Z,19.83
2018-03-29T16:27:38.239Z,19.73
2018-03-29T16:30:06.052Z,20.40
2018-03-29T16:32:33.567Z,20.80
2018-03-29T16:35:01.070Z,21.13
2018-03-29T16:37:28.803Z,20.93
2018-03-29T16:39:56.469Z,20.67
2018-03-29T16:42:24.016Z,18.63
2018-03-29T16:44:51.529Z,18.20
2018-03-29T16:47:20.131Z,20.40
2018-03-29T16:49:47.846Z,19.40
2018-03-29T16:52:16.859Z,22.77
2018-03-29T16:54:44.365Z,19.80
2018-03-29T16:57:11.862Z,19.33
2018-03-29T16:59:39.511Z,19.17
2018-03-29T17:02:07.033Z,19.00
2018-03-29T17:04:34.540Z,19.00
2018-03-29T17:07:02.164Z,18.60
2018-03-29T17:09:29.936Z,20.23
2018-03-29T17:11:57.544Z,18.97
2018-03-29T17:14:26.079Z,20.20
2018-03-29T17:16:53.616Z,18.60
2018-03-29T17:19:21.322Z,20.27
2018-03-29T17:21:48.808Z,20.17
2018-03-29T17:24:16.959Z,18.43
2018-03-29T17:26:44.611Z,19.30
2018-03-29T17:29:12.142Z,19.20
2018-03-29T17:31:39.809Z,18.27
2018-03-29T17:34:07.587Z,17.47
2018-03-29T17:36:35.747Z,19.53
2018-03-29T17:39:03.280Z,18.60
2018-03-29T17:41:30.789Z,18.93
2018-03-29T17:43:58.292Z,18.10
2018-03-29T17:46:26.104Z,18.00
2018-03-29T17:48:53.920Z,18.37
2018-03-29T17:51:21.622Z,16.83
2018-03-29T17:53:49.115Z,19.00
2018-03-29T17:56:16.640Z,18.57
2018-03-29T17:58:44.135Z,15.97
2018-03-29T18:01:12.407Z,14.43
2018-03-29T18:03:40.079Z,15.90
2018-03-29T18:06:07.847Z,13.83
2018-03-29T18:08:35.355Z,13.50
2018-03-29T18:11:03.128Z,13.97
2018-03-29T18:13:30.872Z,15.43
2018-03-29T18:15:58.383Z,14.63
2018-03-29T18:18:25.952Z,15.00
2018-03-29T18:20:53.528Z,15.83
2018-03-29T18:23:21.009Z,12.93
2018-03-29T18:25:48.593Z,12.77
2018-03-29T18:28:16.079Z,15.23
2018-03-29T18:30:43.592Z,12.00
2018-03-29T18:33:11.092Z,12.47
2018-03-29T18:35:39.007Z,13.77
2018-03-29T18:38:06.768Z,12.33
2018-03-29T18:40:34.423Z,13.67
2018-03-29T18:43:01.925Z,12.90
2018-03-29T18:45:29.659Z,13.70
2018-03-29T18:47:57.152Z,12.90
2018-03-29T18:50:25.704Z,12.33
2018-03-29T18:52:53.260Z,13.00
2018-03-29T18:55:21.004Z,11.80
2018-03-29T18:57:48.774Z,24.83
2018-03-29T19:00:16.265Z,17.23
2018-03-29T19:02:44.600Z,25.13
2018-03-29T19:05:12.113Z,20.57
2018-03-29T19:07:39.636Z,10.80
2018-03-29T19:10:07.142Z,9.97
2018-03-29T19:12:34.735Z,10.50
2018-03-29T19:15:02.240Z,9.80
2018-03-29T19:17:29.745Z,9.77
2018-03-29T19:19:57.428Z,10.33
2018-03-29T19:22:24.981Z,9.90
2018-03-29T19:24:52.599Z,9.43
2018-03-29T19:27:20.119Z,10.80
2018-03-29T19:29:47.867Z,10.20
2018-03-29T19:32:15.383Z,14.70
2018-03-29T19:34:43.047Z,12.70
2018-03-29T19:37:10.852Z,11.57
2018-03-29T19:39:38.369Z,12.10
2018-03-29T19:42:05.887Z,11.30
2018-03-29T19:44:33.503Z,11.90
2018-03-29T19:47:00.996Z,11.20
2018-03-29T19:49:28.500Z,10.80
2018-03-29T19:51:56.175Z,17.30
2018-03-29T19:54:23.678Z,11.43
2018-03-29T19:56:51.200Z,28.43
2018-03-29T19:59:18.710Z,12.20
2018-03-29T20:01:46.983Z,10.50
2018-03-29T20:04:14.531Z,9.70
2018-03-29T20:06:43.487Z,9.13
2018-03-29T20:09:11.167Z,9.30
2018-03-29T20:11:38.667Z,8.90
2018-03-29T20:14:06.187Z,9.80
2018-03-29T20:16:33.827Z,10.00
2018-03-29T20:19:01.332Z,9.70
2018-03-29T20:21:29.051Z,9.50
2018-03-29T20:23:56.811Z,9.30
2018-03-29T20:26:24.317Z,10.23
2018-03-29T20:28:52.405Z,8.70
2018-03-29T20:31:19.868Z,9.50
2018-03-29T20:33:47.376Z,9.73
2018-03-29T20:36:15.022Z,10.27
2018-03-29T20:38:43.314Z,9.30
2018-03-29T20:41:10.867Z,10.00
2018-03-29T20:43:38.384Z,9.93
2018-03-29T20:46:05.884Z,10.60
2018-03-29T20:48:33.383Z,9.20
2018-03-29T20:51:00.985Z,23.70
2018-03-29T20:53:28.777Z,9.33
2018-03-29T20:55:56.306Z,12.70
2018-03-29T20:58:23.772Z,9.67
2018-03-29T21:00:51.266Z,8.63
2018-03-29T21:03:19.551Z,8.70
2018-03-29T21:05:47.056Z,8.40
2018-03-29T21:08:14.687Z,8.30
2018-03-29T21:10:42.191Z,8.70
2018-03-29T21:13:09.716Z,8.70
2018-03-29T21:15:37.219Z,8.20
2018-03-29T21:18:05.511Z,8.57
2018-03-29T21:20:33.225Z,7.70
2018-03-29T21:23:01.133Z,8.07
2018-03-29T21:25:28.767Z,8.87
2018-03-29T21:27:56.515Z,8.73
2018-03-29T21:30:24.231Z,10.20
2018-03-29T21:32:52.588Z,9.63
2018-03-29T21:35:20.195Z,10.03
2018-03-29T21:37:47.839Z,9.13
2018-03-29T21:40:21.491Z,10.20
2018-03-29T21:42:49.255Z,9.90
2018-03-29T21:45:16.763Z,9.13
2018-03-29T21:47:44.424Z,10.20
2018-03-29T21:50:11.955Z,11.13
2018-03-29T21:52:39.644Z,10.90
2018-03-29T21:55:07.183Z,10.13
2018-03-29T21:57:34.678Z,9.77
2018-03-29T22:00:02.190Z,11.30
2018-03-29T22:02:30.524Z,10.30
2018-03-29T22:04:58.008Z,12.27
2018-03-29T22:07:25.604Z,14.80
2018-03-29T22:09:53.314Z,11.10
2018-03-29T22:12:20.887Z,13.80
2018-03-29T22:14:48.646Z,14.67
2018-03-29T22:17:16.139Z,11.27
2018-03-29T22:19:43.757Z,11.00
2018-03-29T22:22:11.628Z,10.80
2018-03-29T22:24:40.110Z,11.33
2018-03-29T22:27:07.767Z,11.40
2018-03-29T22:29:36.779Z,10.50
2018-03-29T22:32:04.282Z,11.87
2018-03-29T22:34:31.991Z,12.00
2018-03-29T22:37:00.996Z,14.10
2018-03-29T22:39:28.764Z,11.90
2018-03-29T22:41:56.496Z,13.47
2018-03-29T22:44:24.227Z,13.13
2018-03-29T22:46:51.734Z,13.50
2018-03-29T22:49:19.403Z,12.70
2018-03-29T22:51:46.943Z,13.70
2018-03-29T22:54:14.435Z,14.57
2018-03-29T22:56:41.947Z,14.60
2018-03-29T22:59:09.451Z,14.40
2018-03-29T23:01:37.987Z,15.17
2018-03-29T23:04:05.515Z,14.20
2018-03-29T23:06:33.176Z,13.80
2018-03-29T23:09:01.184Z,13.23
2018-03-29T23:11:28.732Z,14.10
2018-03-29T23:13:56.448Z,15.53
2018-03-29T23:16:23.963Z,16.70
2018-03-29T23:18:51.469Z,16.30
2018-03-29T23:21:18.975Z,16.37
2018-03-29T23:23:47.200Z,17.80
2018-03-29T23:26:14.712Z,16.23
2018-03-29T23:28:43.716Z,17.30
2018-03-29T23:31:11.454Z,18.50
2018-03-29T23:33:38.969Z,17.73
2018-03-29T23:36:06.659Z,18.20
2018-03-29T23:38:34.173Z,20.07
2018-03-29T23:41:01.899Z,19.13
2018-03-29T23:43:29.658Z,16.60
2018-03-29T23:45:57.423Z,18.10
2018-03-29T23:48:24.985Z,19.70
2018-03-29T23:50:52.495Z,18.60
2018-03-29T23:53:20.003Z,19.40
2018-03-29T23:55:47.540Z,18.37
2018-03-29T23:58:17.168Z,19.70
